Home > Products > Valid Products > TAF

000
FTUS43 KJKL 062323
TAFSME
TAF
KSME 062323Z 0700/0724 VRB04KT P6SM SKC=



000
FTUS43 KJKL 062323
TAFJKL
TAF
KJKL 062323Z 0700/0724 VRB03KT P6SM SKC=



000
FTUS43 KJKL 062323
TAFLOZ
TAF
KLOZ 062323Z 0700/0724 VRB04KT P6SM SKC=



000
FTUS43 KJKL 062323
TAFLOZ
TAF
KLOZ 062323Z 0700/0724 VRB04KT P6SM SKC=



000
FTUS43 KJKL 062323
TAFSME
TAF
KSME 062323Z 0700/0724 VRB04KT P6SM SKC=



000
FTUS43 KJKL 062323
TAFJKL
TAF
KJKL 062323Z 0700/0724 VRB03KT P6SM SKC=



000
FTUS43 KJKL 061720
TAFLOZ
TAF
KLOZ 061720Z 0618/0718 VRB04KT P6SM SKC=



000
FTUS43 KJKL 061720
TAFSME
TAF
KSME 061720Z 0618/0718 VRB04KT P6SM SKC=



000
FTUS43 KJKL 061720
TAFJKL
TAF
KJKL 061720Z 0618/0718 VRB03KT P6SM FEW200=



000
FTUS43 KJKL 061131
TAFSME
TAF
KSME 061131Z 0612/0712 00000KT 1/4SM FZFG OVC002
     FM061330 28004KT P6SM SCT120 SCT250=



000
FTUS43 KJKL 061131
TAFJKL
TAF
KJKL 061131Z 0612/0712 00000KT P6SM FEW002
     FM061400 26003KT P6SM SCT120 SCT250=



000
FTUS43 KJKL 061131
TAFSME
TAF
KSME 061131Z 0612/0712 00000KT 1/4SM FZFG OVC002
     FM061330 28004KT P6SM SCT120 SCT250=



000
FTUS43 KJKL 061131
TAFLOZ
TAF
KLOZ 061131Z 0612/0712 00000KT P6SM FEW002
     FM061400 27004KT P6SM SCT120 SCT250=



000
FTUS43 KJKL 061131
TAFJKL
TAF
KJKL 061131Z 0612/0712 00000KT P6SM FEW002
     FM061400 26003KT P6SM SCT120 SCT250=



000
FTUS43 KJKL 061131
TAFLOZ
TAF
KLOZ 061131Z 0612/0712 00000KT P6SM FEW002
     FM061400 27004KT P6SM SCT120 SCT250=



000
FTUS43 KJKL 060538
TAFSME
TAF
KSME 060538Z 0606/0706 00000KT P6SM SKC
     FM061300 28004KT P6SM SCT120 SCT250=



000
FTUS43 KJKL 060538
TAFLOZ
TAF
KLOZ 060538Z 0606/0706 00000KT P6SM SKC
     FM061300 27004KT P6SM SCT120 SCT250=



000
FTUS43 KJKL 060538
TAFJKL
TAF
KJKL 060538Z 0606/0706 00000KT P6SM FEW030
     FM061300 26003KT P6SM SCT120 SCT250=



000
FTUS43 KJKL 060538
TAFJKL
TAF
KJKL 060538Z 0606/0706 00000KT P6SM FEW030
     FM061300 26003KT P6SM SCT120 SCT250=



000
FTUS43 KJKL 060538
TAFLOZ
TAF
KLOZ 060538Z 0606/0706 00000KT P6SM SKC
     FM061300 27004KT P6SM SCT120 SCT250=



000
FTUS43 KJKL 060538
TAFSME
TAF
KSME 060538Z 0606/0706 00000KT P6SM SKC
     FM061300 28004KT P6SM SCT120 SCT250=



000
FTUS43 KJKL 052334
TAFSME
TAF
KSME 052334Z 0600/0624 36008KT P6SM BKN020 OVC100
     FM060100 VRB03KT P6SM SCT020 BKN200=



000
FTUS43 KJKL 052334
TAFJKL
TAF
KJKL 052334Z 0600/0624 VRB03KT P6SM SCT015 OVC100
     FM060100 00000KT P6SM SKC=



000
FTUS43 KJKL 052334
TAFLOZ
TAF
KLOZ 052334Z 0600/0624 36008KT P6SM BKN020 OVC100
     FM060100 VRB03KT P6SM SCT020 BKN200=



000
FTUS43 KJKL 052334
TAFSME
TAF
KSME 052334Z 0600/0624 36008KT P6SM BKN020 OVC100
     FM060100 VRB03KT P6SM SCT020 BKN200=



000
FTUS43 KJKL 052334
TAFJKL
TAF
KJKL 052334Z 0600/0624 VRB03KT P6SM SCT015 OVC100
     FM060100 00000KT P6SM SKC=



000
FTUS43 KJKL 052334
TAFLOZ
TAF
KLOZ 052334Z 0600/0624 36008KT P6SM BKN020 OVC100
     FM060100 VRB03KT P6SM SCT020 BKN200=



000
FTUS43 KJKL 051733
TAFLOZ
TAF
KLOZ 051733Z 0518/0618 36008KT 5SM -SN BR BKN014
     FM052100 36008KT P6SM SCT020 BKN200
     FM052300 00000KT P6SM SKC=



000
FTUS43 KJKL 051733
TAFSME
TAF
KSME 051733Z 0518/0618 36010KT 5SM -SN BR BKN014
     FM052000 36008KT P6SM SCT020 BKN200
     FM052300 00000KT P6SM SKC=



000
FTUS43 KJKL 051733
TAFJKL
TAF
KJKL 051733Z 0518/0618 VRB03KT 1SM -SN BR BKN015 OVC040
     FM051900 VRB03KT 5SM -SN BR BKN015
     FM052200 00000KT P6SM SKC=



000
FTUS43 KJKL 051603 AAE
TAFSME
TAF AMD
KSME 051603Z 0516/0612 05008KT 4SM -SN BR BKN015 OVC040
     FM051700 36008KT P6SM FEW040
     FM052300 00000KT P6SM SKC=



000
FTUS43 KJKL 051603 AAE
TAFSME
TAF AMD
KSME 051603Z 0516/0612 05008KT 4SM -SN BR BKN015 OVC040
     FM051700 36008KT P6SM FEW040
     FM052300 00000KT P6SM SKC=



000
FTUS43 KJKL 051601 AAD
TAFLOZ
TAF AMD
KLOZ 051601Z 0516/0612 36008KT 3SM -SN BR OVC040
     FM051800 36008KT P6SM FEW040
     FM052300 00000KT P6SM SKC=



000
FTUS43 KJKL 051601 AAD
TAFLOZ
TAF AMD
KLOZ 051601Z 0516/0612 36008KT 3SM -SN BR OVC040
     FM051800 36008KT P6SM FEW040
     FM052300 00000KT P6SM SKC=



000
FTUS43 KJKL 051558 AAE
TAFJKL
TAF AMD
KJKL 051558Z 0516/0612 VRB03KT 3/4SM -SN BR BKN012 OVC040
     FM051630 VRB03KT 2SM -SN BR BKN012 OVC040
     FM052030 00000KT P6SM BKN050
     FM052200 00000KT P6SM SKC=



000
FTUS43 KJKL 051558 AAE
TAFJKL
TAF AMD
KJKL 051558Z 0516/0612 VRB03KT 3/4SM -SN BR BKN012 OVC040
     FM051630 VRB03KT 2SM -SN BR BKN012 OVC040
     FM052030 00000KT P6SM BKN050
     FM052200 00000KT P6SM SKC=



000
FTUS43 KJKL 051404 AAD
TAFSME
TAF AMD
KSME 051404Z 0514/0612 04008KT 1/2SM SN OVC005
     FM051500 05008KT 2SM -SN BR OVC010
     FM052000 05006KT P6SM BKN020
     FM060300 05005KT P6SM SCT025=



000
FTUS43 KJKL 051333 AAC
TAFLOZ
TAF AMD
KLOZ 051333Z 0514/0612 02015G19KT 1/4SM +SN VV007
     FM051500 05008KT 2SM -SN BR OVC010
     FM052100 05007KT P6SM BKN020
     FM060300 05005KT P6SM SCT025=



000
FTUS43 KJKL 051333 AAC
TAFSME
TAF AMD
KSME 051333Z 0514/0612 01009KT 1SM -SN OVC012
     FM051500 05008KT 2SM -SN BR OVC010
     FM052000 05006KT P6SM BKN020
     FM060300 05005KT P6SM SCT025=



000
FTUS43 KJKL 051333 AAC
TAFLOZ
TAF AMD
KLOZ 051333Z 0514/0612 02015G19KT 1/4SM +SN VV007
     FM051500 05008KT 2SM -SN BR OVC010
     FM052100 05007KT P6SM BKN020
     FM060300 05005KT P6SM SCT025=



000
FTUS43 KJKL 051333 AAD
TAFJKL
TAF AMD
KJKL 051333Z 0514/0612 03007KT 1/4SM SN FZFG VV009
     FM051500 05006KT 2SM -SN BR SCT005 OVC012
     FM052200 06007KT P6SM BKN020
     FM060200 03004KT P6SM SCT025=



000
FTUS43 KJKL 051250 AAB
TAFLOZ
TAF AMD
KLOZ 051250Z 0513/0612 01008KT 1/2SM SN VV012
     FM051500 05008KT 2SM -SN BR OVC010
     FM052100 05007KT P6SM BKN020
     FM060300 05005KT P6SM SCT025=



000
FTUS43 KJKL 051237 AAA
TAFLOZ
TAF AMD
KLOZ 051237Z 0513/0612 36011G17KT 1SM -SN FEW010 OVC024
     FM051500 05008KT 2SM -SN BR OVC010
     FM052100 05007KT P6SM BKN020
     FM060300 05005KT P6SM SCT025=



000
FTUS43 KJKL 051236 AAB
TAFSME
TAF AMD
KSME 051236Z 0513/0612 02010G18KT 3/4SM -SN OVC006
     FM051500 05008KT 2SM -SN BR OVC010
     FM052000 05006KT P6SM BKN020
     FM060300 05005KT P6SM SCT025=



000
FTUS43 KJKL 051236 AAB
TAFJKL
TAF AMD
KJKL 051236Z 0513/0612 03007KT 1/2SM SN FZFG VV012
     FM051500 05006KT 2SM -SN BR SCT005 OVC012
     FM052200 06007KT P6SM BKN020
     FM060200 03004KT P6SM SCT025=



000
FTUS43 KJKL 051202 AAA
TAFSME
TAF AMD
KSME 051202Z 0512/0612 03010KT 1SM -SN BKN008 OVC013
     FM051500 05008KT 2SM -SN BR OVC010
     FM052000 05006KT P6SM BKN020
     FM060300 05005KT P6SM SCT025=



000
FTUS43 KJKL 051130 AAA
TAFJKL
TAF AMD
KJKL 051130Z 0512/0612 03007KT 1SM -SN BR FEW007 OVC011
     FM051500 05006KT 2SM -SN BR SCT005 OVC012
     FM052200 06007KT P6SM BKN020
     FM060200 03004KT P6SM SCT025=



000
FTUS43 KJKL 051130 AAA
TAFJKL
TAF AMD
KJKL 051130Z 0512/0612 03007KT 1SM -SN BR FEW007 OVC011
     FM051500 05006KT 2SM -SN BR SCT005 OVC012
     FM052200 06007KT P6SM BKN020
     FM060200 03004KT P6SM SCT025=



000
FTUS43 KJKL 051129
TAFSME
TAF
KSME 051129Z 0512/0612 02010G17KT 5SM -SN BKN014 OVC035
     FM051500 05008KT 2SM -SN BR OVC010
     FM052000 05006KT P6SM BKN020
     FM060300 05005KT P6SM SCT025=



000
FTUS43 KJKL 051129
TAFSME
TAF
KSME 051129Z 0512/0612 02010G17KT 5SM -SN BKN014 OVC035
     FM051500 05008KT 2SM -SN BR OVC010
     FM052000 05006KT P6SM BKN020
     FM060300 05005KT P6SM SCT025=



000
FTUS43 KJKL 051129
TAFJKL
TAF
KJKL 051129Z 0512/0612 VRB05KT 1/4SM SN FZFG BKN008 OVC013
     FM051500 05006KT 2SM -SN BR SCT005 OVC012
     FM052200 06007KT P6SM BKN020
     FM060200 03004KT P6SM SCT025=



000
FTUS43 KJKL 051129
TAFLOZ
TAF
KLOZ 051129Z 0512/0612 36011KT 4SM -SN BKN009 BKN015 OVC035
     FM051500 05008KT 2SM -SN BR OVC010
     FM052100 05007KT P6SM BKN020
     FM060300 05005KT P6SM SCT025=



000
FTUS43 KJKL 051129
TAFLOZ
TAF
KLOZ 051129Z 0512/0612 36011KT 4SM -SN BKN009 BKN015 OVC035
     FM051500 05008KT 2SM -SN BR OVC010
     FM052100 05007KT P6SM BKN020
     FM060300 05005KT P6SM SCT025=



000
FTUS43 KJKL 051129
TAFJKL
TAF
KJKL 051129Z 0512/0612 VRB05KT 1/4SM SN FZFG BKN008 OVC013
     FM051500 05006KT 2SM -SN BR SCT005 OVC012
     FM052200 06007KT P6SM BKN020
     FM060200 03004KT P6SM SCT025=



000
FTUS43 KJKL 051026 AAB
TAFJKL
TAF AMD
KJKL 051026Z 0510/0606 VRB05KT 1SM -SN BR SCT007 OVC016
     FM051500 05006KT 2SM -SN BR SCT005 OVC012
     FM052200 06007KT P6SM BKN020=



000
FTUS43 KJKL 051026 AAB
TAFJKL
TAF AMD
KJKL 051026Z 0510/0606 VRB05KT 1SM -SN BR SCT007 OVC016
     FM051500 05006KT 2SM -SN BR SCT005 OVC012
     FM052200 06007KT P6SM BKN020=



000
FTUS43 KJKL 051025 AAB
TAFSME
TAF AMD
KSME 051025Z 0510/0606 02010G16KT P6SM -SN OVC012
     FM051500 05008KT 2SM -SN BR OVC010
     FM052000 05006KT P6SM BKN020=



000
FTUS43 KJKL 051025 AAC
TAFLOZ
TAF AMD
KLOZ 051025Z 0510/0606 01009KT 3/4SM -SN BKN007 OVC013
     FM051500 05008KT 2SM -SN BR OVC010
     FM052100 05007KT P6SM BKN020=



000
FTUS43 KJKL 051025 AAC
TAFLOZ
TAF AMD
KLOZ 051025Z 0510/0606 01009KT 3/4SM -SN BKN007 OVC013
     FM051500 05008KT 2SM -SN BR OVC010
     FM052100 05007KT P6SM BKN020=



000
FTUS43 KJKL 051025 AAB
TAFSME
TAF AMD
KSME 051025Z 0510/0606 02010G16KT P6SM -SN OVC012
     FM051500 05008KT 2SM -SN BR OVC010
     FM052000 05006KT P6SM BKN020=



000
FTUS43 KJKL 050929 AAC
TAFJKL
TAF AMD
KJKL 050929Z 0509/0606 VRB04KT 1 1/2SM -SN BR BKN006 OVC011
     FM051500 05006KT 2SM -SN BR SCT005 OVC012
     FM052200 06007KT P6SM BKN020=



000
FTUS43 KJKL 050807 AAB
TAFJKL
TAF AMD
KJKL 050807Z 0508/0606 04005KT 1 1/2SM -SN BR BKN006 BKN017 OVC022
     FM050900 05006KT 1/4SM +SN BKN004 OVC015
     FM051500 05006KT 2SM -SN BR SCT005 OVC012
     FM052200 06007KT P6SM BKN020=



000
FTUS43 KJKL 050807 AAB
TAFJKL
TAF AMD
KJKL 050807Z 0508/0606 04005KT 1 1/2SM -SN BR BKN006 BKN017 OVC022
     FM050900 05006KT 1/4SM +SN BKN004 OVC015
     FM051500 05006KT 2SM -SN BR SCT005 OVC012
     FM052200 06007KT P6SM BKN020=



000
FTUS43 KJKL 050805 AAB
TAFLOZ
TAF AMD
KLOZ 050805Z 0508/0606 02010G17KT 5SM -FZRAPL BR BKN009 BKN013
      OVC018
     FM050930 02010G15KT 2SM -SN BKN005 OVC015
     FM051500 05008KT 2SM -SN BR OVC010
     FM052100 05007KT P6SM BKN020=



000
FTUS43 KJKL 050805 AAB
TAFLOZ
TAF AMD
KLOZ 050805Z 0508/0606 02010G17KT 5SM -FZRAPL BR BKN009 BKN013
      OVC018
     FM050930 02010G15KT 2SM -SN BKN005 OVC015
     FM051500 05008KT 2SM -SN BR OVC010
     FM052100 05007KT P6SM BKN020=



000
FTUS43 KJKL 050732 AAB
TAFJKL
TAF AMD
KJKL 050732Z 0508/0606 VRB05KT 2SM -PL BR BKN006 BKN021 OVC040
     FM050830 05006KT 1/4SM +SN BKN004 OVC015
     FM051500 05006KT 2SM -SN BR SCT005 OVC012
     FM052200 06007KT P6SM BKN020=



000
FTUS43 KJKL 050732 AAB
TAFJKL
TAF AMD
KJKL 050732Z 0508/0606 VRB05KT 2SM -PL BR BKN006 BKN021 OVC040
     FM050830 05006KT 1/4SM +SN BKN004 OVC015
     FM051500 05006KT 2SM -SN BR SCT005 OVC012
     FM052200 06007KT P6SM BKN020=



000
FTUS43 KJKL 050705 AAA
TAFSME
TAF AMD
KSME 050705Z 0507/0606 02008KT 5SM -FZRAPL BKN009 OVC013
     FM050900 03008KT 1SM -SN OVC008
     FM051500 05008KT 2SM -SN BR OVC010
     FM052000 05006KT P6SM BKN020=



000
FTUS43 KJKL 050705 AAA
TAFSME
TAF AMD
KSME 050705Z 0507/0606 02008KT 5SM -FZRAPL BKN009 OVC013
     FM050900 03008KT 1SM -SN OVC008
     FM051500 05008KT 2SM -SN BR OVC010
     FM052000 05006KT P6SM BKN020=



000
FTUS43 KJKL 050704 AAA
TAFLOZ
TAF AMD
KLOZ 050704Z 0507/0606 01009KT 4SM -FZRAPL BR OVC009
     FM050800 35008KT 1/2SM SN SCT006 OVC012
     FM051500 05008KT 2SM -SN BR OVC010
     FM052100 05007KT P6SM BKN020=



000
FTUS43 KJKL 050704 AAA
TAFLOZ
TAF AMD
KLOZ 050704Z 0507/0606 01009KT 4SM -FZRAPL BR OVC009
     FM050800 35008KT 1/2SM SN SCT006 OVC012
     FM051500 05008KT 2SM -SN BR OVC010
     FM052100 05007KT P6SM BKN020=



000
FTUS43 KJKL 050537 AAB
TAFJKL
TAF AMD
KJKL 050537Z 0506/0606 03004KT 4SM -FZRAPL BR SCT005 BKN008 OVC022
     FM050800 36008KT 1/2SM SN SCT003 OVC008
     FM051500 05006KT 2SM -SN BR SCT005 OVC012
     FM052200 06007KT P6SM BKN020=



000
FTUS43 KJKL 050537 AAB
TAFJKL
TAF AMD
KJKL 050537Z 0506/0606 03004KT 4SM -FZRAPL BR SCT005 BKN008 OVC022
     FM050800 36008KT 1/2SM SN SCT003 OVC008
     FM051500 05006KT 2SM -SN BR SCT005 OVC012
     FM052200 06007KT P6SM BKN020=



000
FTUS43 KJKL 050535 AAA
TAFJKL
TAF AMD
KJKL 050535Z 0506/0606 03006KT 4SM -FZRAPL BR BKN004 OVC022
     FM050800 36008KT 1/2SM SN SCT003 OVC008
     FM051500 05006KT 2SM -SN BR SCT005 OVC012
     FM052200 06007KT P6SM BKN020=



000
FTUS43 KJKL 050535 AAA
TAFJKL
TAF AMD
KJKL 050535Z 0506/0606 03006KT 4SM -FZRAPL BR BKN004 OVC022
     FM050800 36008KT 1/2SM SN SCT003 OVC008
     FM051500 05006KT 2SM -SN BR SCT005 OVC012
     FM052200 06007KT P6SM BKN020=



000
FTUS43 KJKL 050527
TAFJKL
TAF
KJKL 050527Z 0506/0606 03006KT 2SM -FZRAPL BR BKN004 OVC022
     FM050800 36008KT 1/2SM SN SCT003 OVC008
     FM051500 05006KT 2SM -SN BR SCT005 OVC012
     FM052200 06007KT P6SM BKN020=



000
FTUS43 KJKL 050527
TAFLOZ
TAF
KLOZ 050527Z 0506/0606 36009KT 5SM -RA BR OVC007
     FM050700 35008KT 1/2SM SN SCT006 OVC012
     FM051500 05008KT 2SM -SN BR OVC010
     FM052100 05007KT P6SM BKN020=



000
FTUS43 KJKL 050527
TAFSME
TAF
KSME 050527Z 0506/0606 01008KT 4SM -RAPL OVC011
     FM050700 35008KT 1/2SM SN SCT006 OVC012
     FM051500 05008KT 2SM -SN BR OVC010
     FM052000 05006KT P6SM BKN020=



000
FTUS43 KJKL 050527
TAFLOZ
TAF
KLOZ 050527Z 0506/0606 36009KT 5SM -RA BR OVC007
     FM050700 35008KT 1/2SM SN SCT006 OVC012
     FM051500 05008KT 2SM -SN BR OVC010
     FM052100 05007KT P6SM BKN020=



000
FTUS43 KJKL 050527
TAFSME
TAF
KSME 050527Z 0506/0606 01008KT 4SM -RAPL OVC011
     FM050700 35008KT 1/2SM SN SCT006 OVC012
     FM051500 05008KT 2SM -SN BR OVC010
     FM052000 05006KT P6SM BKN020=



000
FTUS43 KJKL 050527
TAFJKL
TAF
KJKL 050527Z 0506/0606 03006KT 2SM -FZRAPL BR BKN004 OVC022
     FM050800 36008KT 1/2SM SN SCT003 OVC008
     FM051500 05006KT 2SM -SN BR SCT005 OVC012
     FM052200 06007KT P6SM BKN020=



000
FTUS43 KJKL 042328
TAFSME
TAF
KSME 042328Z 0500/0524 VRB06KT 5SM RA BR OVC010
     FM050100 VRB03KT 2SM RA BR OVC006
     FM050200 VRB03KT 3SM -RAPLSN BR OVC004
     FM050700 35008KT 1/2SM SN SCT006 OVC012=



000
FTUS43 KJKL 042328
TAFJKL
TAF
KJKL 042328Z 0500/0524 VRB03KT 5SM RA BR OVC005
     FM050100 VRB03KT 2SM RA BR OVC003
     FM050200 VRB03KT 3SM -RAPLSN BR OVC004
     FM050800 36008KT 1/2SM SN SCT003 OVC008=



000
FTUS43 KJKL 042328
TAFLOZ
TAF
KLOZ 042328Z 0500/0524 VRB03KT 4SM RA BR SCT005 OVC012
     FM050100 VRB03KT 2SM RA BR OVC005
     FM050300 VRB03KT 3SM -RAPLSN BR OVC004
     FM050700 35008KT 1/2SM SN SCT006 OVC012=



000
FTUS43 KJKL 042044 AAA
TAFSME
TAF AMD
KSME 042044Z 0421/0518 VRB03KT 5SM RA BR OVC008
     FM042200 VRB03KT 2SM RA BR OVC006
     FM050200 VRB03KT 3SM -RAPL BR OVC004
     FM050700 35008KT 1/2SM SN SCT006 OVC012=



000
FTUS43 KJKL 042044 AAA
TAFSME
TAF AMD
KSME 042044Z 0421/0518 VRB03KT 5SM RA BR OVC008
     FM042200 VRB03KT 2SM RA BR OVC006
     FM050200 VRB03KT 3SM -RAPL BR OVC004
     FM050700 35008KT 1/2SM SN SCT006 OVC012=



000
FTUS43 KJKL 042043 AAA
TAFLOZ
TAF AMD
KLOZ 042043Z 0421/0518 VRB03KT 4SM RA BR SCT005 BKN012
     FM042200 VRB03KT 1 1/2SM BR BKN005
     FM050300 VRB03KT 3SM -RAPL BR OVC004
     FM050700 35008KT 1/2SM SN SCT006 OVC012=



000
FTUS43 KJKL 042043 AAA
TAFLOZ
TAF AMD
KLOZ 042043Z 0421/0518 VRB03KT 4SM RA BR SCT005 BKN012
     FM042200 VRB03KT 1 1/2SM BR BKN005
     FM050300 VRB03KT 3SM -RAPL BR OVC004
     FM050700 35008KT 1/2SM SN SCT006 OVC012=



000
FTUS43 KJKL 042042 AAA
TAFJKL
TAF AMD
KJKL 042042Z 0421/0518 VRB03KT 3SM RA BR BKN005
     FM042200 VRB03KT 1/2SM RA FG BKN005
     FM050200 VRB03KT 4SM -RAPLSN BR OVC004
     FM050800 36008KT 1/2SM SN SCT003 OVC008=



000
FTUS43 KJKL 042042 AAA
TAFJKL
TAF AMD
KJKL 042042Z 0421/0518 VRB03KT 3SM RA BR BKN005
     FM042200 VRB03KT 1/2SM RA FG BKN005
     FM050200 VRB03KT 4SM -RAPLSN BR OVC004
     FM050800 36008KT 1/2SM SN SCT003 OVC008=



000
FTUS43 KJKL 041732
TAFJKL
TAF
KJKL 041732Z 0418/0518 VRB03KT 1/2SM RA FG OVC003
     FM050200 VRB03KT 4SM -RAPLSN BR OVC004
     FM050800 36008KT 1/2SM SN SCT003 OVC008=



000
FTUS43 KJKL 041732
TAFLOZ
TAF
KLOZ 041732Z 0418/0518 VRB03KT 1 1/2SM RA BKN022
     FM050300 VRB03KT 3SM -RAPL BR OVC004
     FM050700 35008KT 1/2SM SN SCT006 OVC012=



000
FTUS43 KJKL 041732
TAFSME
TAF
KSME 041732Z 0418/0518 VRB03KT 2SM RA BKN005
     FM050200 VRB03KT 3SM -RAPL BR OVC004
     FM050700 35008KT 1/2SM SN SCT006 OVC012=



000
FTUS43 KJKL 041606 AAA
TAFSME
TAF AMD
KSME 041606Z 0416/0512 02003KT P6SM BKN005
     FM050200 22008KT 3SM -RAPL BR OVC004
     FM050800 35008KT 1/4SM +SN OVC004=



000
FTUS43 KJKL 041520 AAB
TAFLOZ
TAF AMD
KLOZ 041520Z 0415/0512 VRB03KT 2SM -RA BKN018
     FM041700 30007KT 2SM RA OVC010
     FM050200 22008KT 3SM -RAPL BR OVC004
     FM050900 35008KT 1/4SM +SN OVC004=



000
FTUS43 KJKL 041442 AAG
TAFJKL
TAF AMD
KJKL 041442Z 0415/0512 VRB03KT 1/2SM RA FG VV002
     FM050200 22008KT 4SM -RAPL BR OVC004
     FM050800 36008KT 1/4SM +SN OVC002=



000
FTUS43 KJKL 041442 AAG
TAFJKL
TAF AMD
KJKL 041442Z 0415/0512 VRB03KT 1/2SM RA FG VV002
     FM050200 22008KT 4SM -RAPL BR OVC004
     FM050800 36008KT 1/4SM +SN OVC002=



000
FTUS43 KJKL 041310 AAF
TAFJKL
TAF AMD
KJKL 041310Z 0413/0512 00000KT 2SM -RA BR OVC045
     FM041600 30006KT 3SM RA OVC010
     FM050200 22008KT 4SM -RAPL BR OVC004
     FM050800 36008KT 1/4SM +SN OVC002=



000
FTUS43 KJKL 041240 AAE
TAFJKL
TAF AMD
KJKL 041240Z 0413/0512 21004KT 3/4SM BR OVC045
     FM041600 30006KT 3SM RA OVC010
     FM050200 22008KT 4SM -RAPL BR OVC004
     FM050800 36008KT 1/4SM +SN OVC002=



000
FTUS43 KJKL 041237 AAD
TAFJKL
TAF AMD
KJKL 041237Z 0413/0512 VRB03KT 1 1/2SM BR OVC045
     FM041600 30006KT 3SM RA OVC010
     FM050200 22008KT 4SM -RAPL BR OVC004
     FM050800 36008KT 1/4SM +SN OVC002=



000
FTUS43 KJKL 041157 AAA
TAFLOZ
TAF AMD
KLOZ 041157Z 0412/0512 01004KT P6SM -RA OVC030
     FM041700 30007KT 2SM RA OVC010
     FM050200 22008KT 3SM -RAPL BR OVC004
     FM050900 35008KT 1/4SM +SN OVC004=



000
FTUS43 KJKL 041143 AAB
TAFJKL
TAF AMD
KJKL 041143Z 0412/0512 36004KT P6SM -RA SCT006 SCT014 OVC035
     FM041600 30006KT 3SM RA OVC010
     FM050200 22008KT 4SM -RAPL BR OVC004
     FM050800 36008KT 1/4SM +SN OVC002=



000
FTUS43 KJKL 041143 AAB
TAFJKL
TAF AMD
KJKL 041143Z 0412/0512 36004KT P6SM -RA SCT006 SCT014 OVC035
     FM041600 30006KT 3SM RA OVC010
     FM050200 22008KT 4SM -RAPL BR OVC004
     FM050800 36008KT 1/4SM +SN OVC002=



000
FTUS43 KJKL 041127
TAFSME
TAF
KSME 041127Z 0412/0512 02003KT P6SM SCT006 OVC030
     FM050200 22008KT 3SM -RAPL BR OVC004
     FM050800 35008KT 1/4SM +SN OVC004=



000
FTUS43 KJKL 041127
TAFJKL
TAF
KJKL 041127Z 0412/0512 04005KT P6SM -RA BKN006 BKN014 OVC035
     FM050200 22008KT 4SM -RAPL BR OVC004
     FM050800 36008KT 1/4SM +SN OVC002=



000
FTUS43 KJKL 041127
TAFLOZ
TAF
KLOZ 041127Z 0412/0512 35010KT 6SM -RA BKN006 OVC018
     FM050200 22008KT 3SM -RAPL BR OVC004
     FM050900 35008KT 1/4SM +SN OVC004=



000
FTUS43 KJKL 040851 AAA
TAFLOZ
TAF AMD
KLOZ 040851Z 0409/0506 33005KT 3SM RA BR FEW009 BKN035 OVC045
     FM041100 35007KT 1SM +SHRA BR OVC006
     FM050200 22008KT 3SM -RAPL BR OVC004=



000
FTUS43 KJKL 040851 AAA
TAFLOZ
TAF AMD
KLOZ 040851Z 0409/0506 33005KT 3SM RA BR FEW009 BKN035 OVC045
     FM041100 35007KT 1SM +SHRA BR OVC006
     FM050200 22008KT 3SM -RAPL BR OVC004=



000
FTUS43 KJKL 040842 AAB
TAFJKL
TAF AMD
KJKL 040842Z 0409/0506 VRB04KT 2SM +RA BR SCT004 BKN009 OVC019
     FM041100 35006KT 1SM +SHRA BR OVC005
     FM050200 22008KT 4SM -RAPL BR OVC004=



000
FTUS43 KJKL 040842 AAB
TAFJKL
TAF AMD
KJKL 040842Z 0409/0506 VRB04KT 2SM +RA BR SCT004 BKN009 OVC019
     FM041100 35006KT 1SM +SHRA BR OVC005
     FM050200 22008KT 4SM -RAPL BR OVC004=



000
FTUS43 KJKL 040835 AAB
TAFJKL
TAF AMD
KJKL 040835Z 0409/0506 VRB05KT 3SM RA BR BKN004 BKN008 OVC016
     FM041100 35006KT 1SM +SHRA BR OVC005
     FM050200 22008KT 4SM -RAPL BR OVC004=



000
FTUS43 KJKL 040835 AAB
TAFJKL
TAF AMD
KJKL 040835Z 0409/0506 VRB05KT 3SM RA BR BKN004 BKN008 OVC016
     FM041100 35006KT 1SM +SHRA BR OVC005
     FM050200 22008KT 4SM -RAPL BR OVC004=



000
FTUS43 KJKL 040729 AAA
TAFJKL
TAF AMD
KJKL 040729Z 0407/0506 VRB06G15KT 3SM +RA BR SCT003 BKN008 OVC029
     FM041100 35006KT 1SM +SHRA BR OVC005
     FM050200 22008KT 4SM -RAPL BR OVC004=



000
FTUS43 KJKL 040729 AAA
TAFJKL
TAF AMD
KJKL 040729Z 0407/0506 VRB06G15KT 3SM +RA BR SCT003 BKN008 OVC029
     FM041100 35006KT 1SM +SHRA BR OVC005
     FM050200 22008KT 4SM -RAPL BR OVC004=



000
FTUS43 KJKL 040530
TAFLOZ
TAF
KLOZ 040530Z 0406/0506 23010G16KT P6SM -RA FEW008 BKN011 OVC024
     FM041100 35007KT 1SM +SHRA BR OVC006
     FM050200 22008KT 3SM -RAPL BR OVC004=



000
FTUS43 KJKL 040530
TAFJKL
TAF
KJKL 040530Z 0406/0506 21005KT 1/2SM -RA FG VV002
     FM041100 35006KT 1SM +SHRA BR OVC005
     FM050200 22008KT 4SM -RAPL BR OVC004=



000
FTUS43 KJKL 040530
TAFJKL
TAF
KJKL 040530Z 0406/0506 21005KT 1/2SM -RA FG VV002
     FM041100 35006KT 1SM +SHRA BR OVC005
     FM050200 22008KT 4SM -RAPL BR OVC004=



000
FTUS43 KJKL 040530
TAFLOZ
TAF
KLOZ 040530Z 0406/0506 23010G16KT P6SM -RA FEW008 BKN011 OVC024
     FM041100 35007KT 1SM +SHRA BR OVC006
     FM050200 22008KT 3SM -RAPL BR OVC004=



000
FTUS43 KJKL 040530
TAFSME
TAF
KSME 040530Z 0406/0506 00000KT 4SM +RA SCT004 OVC007
     FM041100 35007KT 1SM +SHRA BR OVC006
     FM050200 22008KT 3SM -RAPL BR OVC004=



000
FTUS43 KJKL 040530
TAFSME
TAF
KSME 040530Z 0406/0506 00000KT 4SM +RA SCT004 OVC007
     FM041100 35007KT 1SM +SHRA BR OVC006
     FM050200 22008KT 3SM -RAPL BR OVC004=



    US Dept of Commerce
    National Oceanic and Atmospheric Administration
    National Weather Service
    1325 East West Highway
    Silver Spring, MD 20910
    Page Author: NWS Internet Services Team
Disclaimer
Information Quality
Credits
Glossary
Privacy Policy
Freedom of Information Act (FOIA)
About Us
Career Opportunities